Aviation Digital Data Service (ADDS)

Output produced by METARs form (1312 UTC 21 May 2018)
found at http://aviationweather.gov/adds/metars/
 
KNEW 211253Z 23004KT 10SM CLR 27/22 A3004 RMK AO2 SLP165 T02670222